createdAt,value
2023-05-25T00:01:11.925Z,51.14
2023-05-25T00:03:40.665Z,51.11
2023-05-25T00:06:08.301Z,51.03
2023-05-25T00:08:35.808Z,50.98
2023-05-25T00:11:03.235Z,51.53
2023-05-25T00:13:31.215Z,52.28
2023-05-25T00:15:58.780Z,52.83
2023-05-25T00:18:27.370Z,53.10
2023-05-25T00:20:54.788Z,53.29
2023-05-25T00:23:22.395Z,53.36
2023-05-25T00:25:49.791Z,53.53
2023-05-25T00:28:17.555Z,53.39
2023-05-25T00:30:45.061Z,53.26
2023-05-25T00:33:13.382Z,53.37
2023-05-25T00:35:44.946Z,53.59
2023-05-25T00:38:17.212Z,53.88
2023-05-25T00:40:45.808Z,54.03
2023-05-25T00:43:13.717Z,54.28
2023-05-25T00:45:41.542Z,54.39
2023-05-25T00:48:10.086Z,54.46
2023-05-25T00:50:42.345Z,54.45
2023-05-25T00:53:11.093Z,54.55
2023-05-25T00:55:56.132Z,54.56
2023-05-25T00:58:25.190Z,54.47
2023-05-25T01:00:54.408Z,54.34
2023-05-25T01:03:22.657Z,54.29
2023-05-25T01:05:50.969Z,54.25
2023-05-25T01:08:18.373Z,54.13
2023-05-25T01:10:46.232Z,54.02
2023-05-25T01:13:14.179Z,53.99
2023-05-25T01:15:41.872Z,54.08
2023-05-25T01:18:09.715Z,54.07
2023-05-25T01:20:37.301Z,54.17
2023-05-25T01:23:12.542Z,54.01
2023-05-25T01:25:51.931Z,54.11
2023-05-25T01:28:23.234Z,54.05
2023-05-25T01:30:50.789Z,54.05
2023-05-25T01:33:18.903Z,53.98
2023-05-25T01:35:47.476Z,53.90
2023-05-25T01:38:14.934Z,53.85
2023-05-25T01:40:42.592Z,53.80
2023-05-25T01:43:10.051Z,53.66
2023-05-25T01:45:37.536Z,53.70
2023-05-25T01:48:20.049Z,53.61
2023-05-25T01:50:47.589Z,53.52
2023-05-25T01:53:28.669Z,53.46
2023-05-25T01:56:02.596Z,53.44
2023-05-25T01:58:36.048Z,53.29
2023-05-25T02:01:04.106Z,53.30
2023-05-25T02:03:31.730Z,53.27
2023-05-25T02:05:59.347Z,53.18
2023-05-25T02:08:27.171Z,53.17
2023-05-25T02:10:54.633Z,53.12
2023-05-25T02:13:22.308Z,53.17
2023-05-25T02:15:50.100Z,53.13
2023-05-25T02:18:19.906Z,53.08
2023-05-25T02:20:47.768Z,53.02
2023-05-25T02:23:15.293Z,52.95
2023-05-25T02:25:43.273Z,52.99
2023-05-25T02:28:11.093Z,52.94
2023-05-25T02:30:39.270Z,52.95
2023-05-25T02:33:07.205Z,52.94
2023-05-25T02:35:36.399Z,52.92
2023-05-25T02:38:04.021Z,52.89
2023-05-25T02:40:31.602Z,52.99
2023-05-25T02:42:59.260Z,53.08
2023-05-25T02:45:26.932Z,53.01
2023-05-25T02:47:54.543Z,53.10
2023-05-25T02:50:22.804Z,53.07
2023-05-25T02:52:52.264Z,53.08
2023-05-25T02:55:19.898Z,53.09
2023-05-25T02:57:47.700Z,53.10
2023-05-25T03:00:26.050Z,53.09
2023-05-25T03:02:54.257Z,53.17
2023-05-25T03:05:22.546Z,53.20
2023-05-25T03:07:50.193Z,53.19
2023-05-25T03:10:17.755Z,53.19
2023-05-25T03:12:45.329Z,53.23
2023-05-25T03:15:14.150Z,53.24
2023-05-25T03:17:42.247Z,53.24
2023-05-25T03:20:11.871Z,53.17
2023-05-25T03:22:41.888Z,53.28
2023-05-25T03:25:13.497Z,53.22
2023-05-25T03:27:41.165Z,53.21
2023-05-25T03:30:09.305Z,53.25
2023-05-25T03:32:36.973Z,53.14
2023-05-25T03:35:08.508Z,53.28
2023-05-25T03:37:35.949Z,53.34
2023-05-25T03:40:05.011Z,53.31
2023-05-25T03:42:32.815Z,53.31
2023-05-25T03:45:00.792Z,53.31
2023-05-25T03:47:28.391Z,53.52
2023-05-25T03:49:55.823Z,53.66
2023-05-25T03:52:23.330Z,53.86
2023-05-25T03:54:50.749Z,54.20
2023-05-25T03:57:18.253Z,54.60
2023-05-25T03:59:45.918Z,55.28
2023-05-25T04:02:13.608Z,55.77
2023-05-25T04:04:42.125Z,56.19
2023-05-25T04:07:09.578Z,56.33
2023-05-25T04:09:37.001Z,56.38
2023-05-25T04:12:04.956Z,55.95
2023-05-25T04:14:33.053Z,55.91
2023-05-25T04:17:00.601Z,55.92
2023-05-25T04:19:28.004Z,55.75
2023-05-25T04:21:55.836Z,55.41
2023-05-25T04:24:23.503Z,55.32
2023-05-25T04:26:50.971Z,55.46
2023-05-25T04:29:18.637Z,55.40
2023-05-25T04:32:17.996Z,55.57
2023-05-25T04:35:05.964Z,55.60
2023-05-25T04:37:55.009Z,55.59
2023-05-25T04:40:28.177Z,55.49
2023-05-25T04:42:58.931Z,55.28
2023-05-25T04:45:26.491Z,55.11
2023-05-25T04:47:58.469Z,55.04
2023-05-25T04:50:28.829Z,54.86
2023-05-25T04:52:56.427Z,54.69
2023-05-25T04:55:24.149Z,54.68
2023-05-25T04:57:53.507Z,54.55
2023-05-25T05:00:25.273Z,54.29
2023-05-25T05:02:56.742Z,53.86
2023-05-25T05:05:24.725Z,53.58
2023-05-25T05:07:56.316Z,53.60
2023-05-25T05:10:27.058Z,53.60
2023-05-25T05:13:00.345Z,53.62
2023-05-25T05:15:30.137Z,53.60
2023-05-25T05:18:02.557Z,53.64
2023-05-25T05:20:33.081Z,53.68
2023-05-25T05:23:03.956Z,53.63
2023-05-25T05:25:40.678Z,53.70
2023-05-25T05:28:08.373Z,53.68
2023-05-25T05:30:43.768Z,53.63
2023-05-25T05:33:14.962Z,53.62
2023-05-25T05:36:00.186Z,53.42
2023-05-25T05:38:28.469Z,53.29
2023-05-25T05:40:56.238Z,53.11
2023-05-25T05:43:34.117Z,52.93
2023-05-25T05:46:01.797Z,52.50
2023-05-25T05:48:32.995Z,52.38
2023-05-25T05:51:07.142Z,52.11
2023-05-25T05:53:55.218Z,51.71
2023-05-25T05:56:25.601Z,51.42
2023-05-25T05:58:55.142Z,50.97
2023-05-25T06:01:22.755Z,50.70
2023-05-25T06:03:50.900Z,50.56
2023-05-25T06:06:24.940Z,50.47
2023-05-25T06:09:06.726Z,50.14
2023-05-25T06:11:37.253Z,49.72
2023-05-25T06:14:04.867Z,49.39
2023-05-25T06:16:38.075Z,49.29
2023-05-25T06:19:06.309Z,49.17
2023-05-25T06:21:37.837Z,48.44
2023-05-25T06:24:06.215Z,48.05
2023-05-25T06:26:34.775Z,47.69
2023-05-25T06:29:02.692Z,47.29
2023-05-25T06:31:33.215Z,46.93
2023-05-25T06:34:01.171Z,46.49
2023-05-25T06:36:32.122Z,46.37
2023-05-25T06:39:00.227Z,46.02
2023-05-25T06:41:32.796Z,45.71
2023-05-25T06:44:00.373Z,45.29
2023-05-25T06:46:33.228Z,44.99
2023-05-25T06:49:04.178Z,44.87
2023-05-25T06:51:34.502Z,44.85
2023-05-25T06:54:06.093Z,44.80
2023-05-25T06:56:33.559Z,44.86
2023-05-25T06:59:01.175Z,44.82
2023-05-25T07:01:28.919Z,44.46
2023-05-25T07:03:56.367Z,43.73
2023-05-25T07:06:23.837Z,43.31
2023-05-25T07:08:57.262Z,43.15
2023-05-25T07:11:26.874Z,41.33
2023-05-25T07:14:02.738Z,38.92
2023-05-25T07:16:33.144Z,37.74
2023-05-25T07:19:06.941Z,37.25
2023-05-25T07:21:34.560Z,37.38
2023-05-25T07:24:02.301Z,37.59
2023-05-25T07:26:34.736Z,38.12
2023-05-25T07:29:09.675Z,38.22
2023-05-25T07:31:39.865Z,38.66
2023-05-25T07:34:07.428Z,38.88
2023-05-25T07:36:40.776Z,38.54
2023-05-25T07:39:12.278Z,38.61
2023-05-25T07:41:45.017Z,38.39
2023-05-25T07:44:12.765Z,36.96
2023-05-25T07:46:43.303Z,35.17
2023-05-25T07:49:16.475Z,32.92
2023-05-25T07:51:47.998Z,29.95
2023-05-25T07:54:17.459Z,27.53
2023-05-25T07:56:46.596Z,25.37
2023-05-25T07:59:14.550Z,24.52
2023-05-25T08:01:41.985Z,24.38
2023-05-25T08:04:09.578Z,23.77
2023-05-25T08:06:40.481Z,23.74
2023-05-25T08:09:08.279Z,24.03
2023-05-25T08:11:35.915Z,24.74
2023-05-25T08:14:03.496Z,25.70
2023-05-25T08:16:31.125Z,26.67
2023-05-25T08:19:00.049Z,27.74
2023-05-25T08:21:27.610Z,28.69
2023-05-25T08:24:10.673Z,29.28
2023-05-25T08:26:52.998Z,30.32
2023-05-25T08:29:21.614Z,30.73
2023-05-25T08:31:49.955Z,30.90
2023-05-25T08:34:20.437Z,30.87
2023-05-25T08:36:50.632Z,31.21
2023-05-25T08:39:21.246Z,31.47
2023-05-25T08:41:55.890Z,31.87
2023-05-25T08:44:23.457Z,32.19
2023-05-25T08:46:54.072Z,32.52
2023-05-25T08:49:23.665Z,32.97
2023-05-25T08:51:53.349Z,32.94
2023-05-25T08:54:45.388Z,32.60
2023-05-25T08:57:28.462Z,32.43
2023-05-25T09:03:21.066Z,31.21
2023-05-25T09:05:48.867Z,30.51
2023-05-25T09:08:23.167Z,30.32
2023-05-25T09:10:56.127Z,30.52
2023-05-25T09:13:24.482Z,30.05
2023-05-25T09:15:56.162Z,29.60
2023-05-25T09:18:27.206Z,29.39
2023-05-25T09:20:56.911Z,29.33
2023-05-25T09:23:26.177Z,28.89
2023-05-25T09:25:56.863Z,28.25
2023-05-25T09:28:27.559Z,27.94
2023-05-25T09:30:55.707Z,27.74
2023-05-25T09:33:27.699Z,27.60
2023-05-25T09:35:56.275Z,27.25
2023-05-25T09:38:23.955Z,27.16
2023-05-25T09:41:04.627Z,26.93
2023-05-25T09:46:11.523Z,27.00
2023-05-25T09:48:39.105Z,26.48
2023-05-25T09:51:10.796Z,25.88
2023-05-25T09:56:19.465Z,25.67
2023-05-25T09:58:54.030Z,25.65
2023-05-25T10:01:21.532Z,25.32
2023-05-25T10:04:02.902Z,25.10
2023-05-25T10:06:33.550Z,24.96
2023-05-25T10:09:01.688Z,24.60
2023-05-25T10:11:30.608Z,24.33
2023-05-25T10:14:00.422Z,24.17
2023-05-25T10:16:39.748Z,24.35
2023-05-25T10:19:18.440Z,24.42
2023-05-25T10:22:17.562Z,23.92
2023-05-25T10:24:57.824Z,23.70
2023-05-25T10:27:28.214Z,23.32
2023-05-25T10:30:05.437Z,23.00
2023-05-25T10:32:33.887Z,22.87
2023-05-25T10:35:01.421Z,22.41
2023-05-25T10:37:28.848Z,22.18
2023-05-25T10:39:57.193Z,22.48
2023-05-25T10:42:26.501Z,23.95
2023-05-25T10:44:58.583Z,25.02
2023-05-25T10:47:32.073Z,25.37
2023-05-25T10:50:03.257Z,24.95
2023-05-25T10:52:33.429Z,23.98
2023-05-25T10:55:05.657Z,23.62
2023-05-25T10:57:33.274Z,23.16
2023-05-25T11:00:09.196Z,22.89
2023-05-25T11:02:52.573Z,23.35
2023-05-25T11:05:26.188Z,23.31
2023-05-25T11:07:57.685Z,23.41
2023-05-25T11:10:46.577Z,23.82
2023-05-25T11:13:35.581Z,25.26
2023-05-25T11:16:36.606Z,27.51
2023-05-25T11:19:04.385Z,29.20
2023-05-25T11:21:35.966Z,29.99
2023-05-25T11:24:10.725Z,30.60
2023-05-25T11:26:44.997Z,31.12
2023-05-25T11:29:19.783Z,31.71
2023-05-25T11:31:54.192Z,32.19
2023-05-25T11:34:30.059Z,32.71
2023-05-25T11:37:04.232Z,33.04
2023-05-25T11:39:36.080Z,33.41
2023-05-25T11:42:09.307Z,33.42
2023-05-25T11:44:36.981Z,33.55
2023-05-25T11:47:26.089Z,33.87
2023-05-25T11:50:14.423Z,34.30
2023-05-25T11:52:41.918Z,34.63
2023-05-25T11:55:15.625Z,34.49
2023-05-25T11:57:46.272Z,34.68
2023-05-25T12:03:02.648Z,35.07
2023-05-25T12:05:38.224Z,35.30
2023-05-25T12:08:08.914Z,35.36
2023-05-25T12:10:56.768Z,35.48
2023-05-25T12:13:31.589Z,35.67
2023-05-25T12:16:05.533Z,35.58
2023-05-25T12:18:36.163Z,35.72
2023-05-25T12:21:13.423Z,35.89
2023-05-25T12:23:41.004Z,35.77
2023-05-25T12:26:19.104Z,35.71
2023-05-25T12:28:59.934Z,35.54
2023-05-25T12:31:34.268Z,35.20
2023-05-25T12:34:13.922Z,35.09
2023-05-25T12:36:43.210Z,35.00
2023-05-25T12:39:36.956Z,34.82
2023-05-25T12:42:09.456Z,34.64
2023-05-25T12:44:37.483Z,34.76
2023-05-25T12:47:14.305Z,34.74
2023-05-25T12:49:46.837Z,34.54
2023-05-25T12:52:40.770Z,34.39
2023-05-25T12:55:30.441Z,34.10
2023-05-25T12:58:04.882Z,33.93
2023-05-25T13:00:38.041Z,33.99
2023-05-25T13:03:21.336Z,34.07
2023-05-25T13:05:59.722Z,33.88
2023-05-25T13:08:27.272Z,33.71
2023-05-25T13:10:57.770Z,33.49
2023-05-25T13:13:27.374Z,33.12
2023-05-25T13:16:04.139Z,32.56
2023-05-25T13:18:34.704Z,32.19
2023-05-25T13:21:06.218Z,31.60
2023-05-25T13:23:33.948Z,31.26
2023-05-25T13:26:04.003Z,31.23
2023-05-25T13:28:32.214Z,30.97
2023-05-25T13:31:03.234Z,30.97
2023-05-25T13:33:30.851Z,31.29
2023-05-25T13:35:58.924Z,31.50
2023-05-25T13:38:44.269Z,31.42
2023-05-25T13:41:14.887Z,31.56
2023-05-25T13:43:42.484Z,31.63
2023-05-25T13:46:29.991Z,31.40
2023-05-25T13:49:01.934Z,31.30
2023-05-25T13:51:35.489Z,31.30
2023-05-25T13:54:06.902Z,31.28
2023-05-25T13:56:37.285Z,31.26
2023-05-25T13:59:07.570Z,31.24
2023-05-25T14:01:38.490Z,30.95
2023-05-25T14:04:10.406Z,30.41
2023-05-25T14:06:38.045Z,30.47
2023-05-25T14:09:05.602Z,30.74
2023-05-25T14:11:39.670Z,31.40
2023-05-25T14:14:31.607Z,32.08
2023-05-25T14:17:01.270Z,32.54
2023-05-25T14:19:29.387Z,32.88
2023-05-25T14:22:13.187Z,33.37
2023-05-25T14:24:45.177Z,33.80
2023-05-25T14:27:24.120Z,34.24
2023-05-25T14:29:51.721Z,34.64
2023-05-25T14:32:23.002Z,35.10
2023-05-25T14:34:50.508Z,35.29
2023-05-25T14:37:26.323Z,35.41
2023-05-25T14:40:10.691Z,35.51
2023-05-25T14:42:38.592Z,35.68
2023-05-25T14:45:37.850Z,35.59
2023-05-25T14:48:16.440Z,35.00
2023-05-25T14:50:48.158Z,35.13
2023-05-25T14:53:22.840Z,35.81
2023-05-25T14:55:54.118Z,36.24
2023-05-25T14:58:29.396Z,36.70
2023-05-25T15:00:57.100Z,37.06
2023-05-25T15:03:24.598Z,37.56
2023-05-25T15:05:52.107Z,37.95
2023-05-25T15:08:29.948Z,38.11
2023-05-25T15:11:08.004Z,38.24
2023-05-25T15:13:44.829Z,38.50
2023-05-25T15:16:21.063Z,38.80
2023-05-25T15:18:48.573Z,38.49
2023-05-25T15:21:16.096Z,38.11
2023-05-25T15:23:50.457Z,37.97
2023-05-25T15:26:18.281Z,37.96
2023-05-25T15:28:45.821Z,37.98
2023-05-25T15:31:17.119Z,37.56
2023-05-25T15:33:59.144Z,37.67
2023-05-25T15:36:27.091Z,37.83
2023-05-25T15:39:18.995Z,37.85
2023-05-25T15:41:47.266Z,37.79
2023-05-25T15:44:17.692Z,37.62
2023-05-25T15:46:52.026Z,37.62
2023-05-25T15:49:20.568Z,37.76
2023-05-25T15:51:57.131Z,37.71
2023-05-25T15:54:51.591Z,37.79
2023-05-25T15:57:19.322Z,37.48
2023-05-25T15:59:55.032Z,37.18
2023-05-25T16:02:23.417Z,37.24
2023-05-25T16:04:51.124Z,37.38
2023-05-25T16:07:18.593Z,37.39
2023-05-25T16:09:49.863Z,37.49
2023-05-25T16:12:31.001Z,37.55
2023-05-25T16:15:03.163Z,37.42
2023-05-25T16:17:33.373Z,37.33
2023-05-25T16:20:04.472Z,37.12
2023-05-25T16:22:36.043Z,37.21
2023-05-25T16:25:10.057Z,37.07
2023-05-25T16:27:40.622Z,37.26
2023-05-25T16:30:14.399Z,37.40
2023-05-25T16:32:51.142Z,37.26
2023-05-25T16:35:20.545Z,37.19
2023-05-25T16:37:49.348Z,37.04
2023-05-25T16:40:17.858Z,37.04
2023-05-25T16:42:51.707Z,37.07
2023-05-25T16:45:24.336Z,37.01
2023-05-25T16:48:03.092Z,37.06
2023-05-25T16:50:30.800Z,37.09
2023-05-25T16:52:58.239Z,37.06
2023-05-25T16:55:25.990Z,37.05
2023-05-25T16:57:53.378Z,37.00
2023-05-25T17:00:21.171Z,37.21
2023-05-25T17:02:48.862Z,37.37
2023-05-25T17:05:16.665Z,37.24
2023-05-25T17:07:49.342Z,37.29
2023-05-25T17:10:17.079Z,37.35
2023-05-25T17:12:47.579Z,37.53
2023-05-25T17:15:16.791Z,37.50
2023-05-25T17:17:52.675Z,37.70
2023-05-25T17:20:21.727Z,37.83
2023-05-25T17:23:12.421Z,37.89
2023-05-25T17:25:43.294Z,37.92
2023-05-25T17:28:13.666Z,38.09
2023-05-25T17:30:41.458Z,38.17
2023-05-25T17:33:12.606Z,38.33
2023-05-25T17:35:44.668Z,38.43
2023-05-25T17:38:15.777Z,38.51
2023-05-25T17:40:50.322Z,38.70
2023-05-25T17:43:29.170Z,38.74
2023-05-25T17:45:56.896Z,38.82
2023-05-25T17:48:26.376Z,39.05
2023-05-25T17:51:03.755Z,39.20
2023-05-25T17:53:43.290Z,39.24
2023-05-25T17:58:52.215Z,39.40
2023-05-25T18:01:19.921Z,39.52
2023-05-25T18:03:49.560Z,39.60
2023-05-25T18:06:20.938Z,39.78
2023-05-25T18:08:48.447Z,39.88
2023-05-25T18:11:15.843Z,39.79
2023-05-25T18:13:43.428Z,39.90
2023-05-25T18:16:10.942Z,40.10
2023-05-25T18:18:38.357Z,40.26
2023-05-25T18:21:06.331Z,40.20
2023-05-25T18:23:33.771Z,40.23
2023-05-25T18:26:01.377Z,40.25
2023-05-25T18:28:31.157Z,40.29
2023-05-25T18:30:59.084Z,40.29
2023-05-25T18:33:26.579Z,40.32
2023-05-25T18:35:54.382Z,40.37
2023-05-25T18:38:22.051Z,40.22
2023-05-25T18:40:49.728Z,40.24
2023-05-25T18:43:17.119Z,40.27
2023-05-25T18:45:44.676Z,40.36
2023-05-25T18:48:12.405Z,40.29
2023-05-25T18:50:42.136Z,40.36
2023-05-25T18:53:10.952Z,40.22
2023-05-25T18:55:38.471Z,40.42
2023-05-25T18:58:06.672Z,40.39
2023-05-25T19:00:34.179Z,40.37
2023-05-25T19:03:01.763Z,40.41
2023-05-25T19:05:29.469Z,40.54
2023-05-25T19:07:59.486Z,40.60
2023-05-25T19:10:27.612Z,40.64
2023-05-25T19:12:55.146Z,40.66
2023-05-25T19:15:22.700Z,40.68
2023-05-25T19:17:50.192Z,40.67
2023-05-25T19:20:17.721Z,40.72
2023-05-25T19:22:45.395Z,40.82
2023-05-25T19:25:13.089Z,40.89
2023-05-25T19:27:40.559Z,40.99
2023-05-25T19:30:08.572Z,40.98
2023-05-25T19:32:36.208Z,41.02
2023-05-25T19:35:03.843Z,41.04
2023-05-25T19:37:31.217Z,41.09
2023-05-25T19:39:58.657Z,41.08
2023-05-25T19:42:26.261Z,41.03
2023-05-25T19:44:53.794Z,41.12
2023-05-25T19:47:22.301Z,41.15
2023-05-25T19:49:49.671Z,41.21
2023-05-25T19:52:18.053Z,41.20
2023-05-25T19:54:45.449Z,41.23
2023-05-25T19:57:12.888Z,41.22
2023-05-25T19:59:40.719Z,41.17
2023-05-25T20:02:08.157Z,41.15
2023-05-25T20:04:35.725Z,41.17
2023-05-25T20:07:03.324Z,41.10
2023-05-25T20:09:31.048Z,41.10
2023-05-25T20:11:59.089Z,41.16
2023-05-25T20:14:26.675Z,41.25
2023-05-25T20:16:57.005Z,41.54
2023-05-25T20:19:24.767Z,41.54
2023-05-25T20:21:52.179Z,41.67
2023-05-25T20:24:19.646Z,41.92
2023-05-25T20:26:47.113Z,42.03
2023-05-25T20:29:14.766Z,42.22
2023-05-25T20:31:42.162Z,42.28
2023-05-25T20:34:09.601Z,42.34
2023-05-25T20:36:37.575Z,42.51
2023-05-25T20:39:05.135Z,42.59
2023-05-25T20:41:32.546Z,42.65
2023-05-25T20:44:00.043Z,42.74
2023-05-25T20:46:27.479Z,42.72
2023-05-25T20:48:57.246Z,42.79
2023-05-25T20:51:24.653Z,42.83
2023-05-25T20:53:52.086Z,42.83
2023-05-25T20:56:19.536Z,42.88
2023-05-25T20:58:47.262Z,42.94
2023-05-25T21:01:15.209Z,42.94
2023-05-25T21:03:42.797Z,43.06
2023-05-25T21:06:10.789Z,43.03
2023-05-25T21:08:38.386Z,43.05
2023-05-25T21:11:05.849Z,43.06
2023-05-25T21:13:33.514Z,43.12
2023-05-25T21:16:01.550Z,43.07
2023-05-25T21:18:28.985Z,43.08
2023-05-25T21:20:56.628Z,43.21
2023-05-25T21:23:25.517Z,43.16
2023-05-25T21:25:52.906Z,43.23
2023-05-25T21:28:20.407Z,43.31
2023-05-25T21:30:47.927Z,43.42
2023-05-25T21:33:15.671Z,43.43
2023-05-25T21:35:43.308Z,43.58
2023-05-25T21:38:11.052Z,43.52
2023-05-25T21:40:38.677Z,43.56
2023-05-25T21:43:06.862Z,43.70
2023-05-25T21:45:34.252Z,43.76
2023-05-25T21:48:03.692Z,43.69
2023-05-25T21:50:31.502Z,43.85
2023-05-25T21:52:59.065Z,43.93
2023-05-25T21:55:26.548Z,44.05
2023-05-25T21:57:54.188Z,44.11
2023-05-25T22:00:23.601Z,44.21
2023-05-25T22:02:51.688Z,44.31
2023-05-25T22:05:19.472Z,44.47
2023-05-25T22:07:46.894Z,44.51
2023-05-25T22:10:14.489Z,44.61
2023-05-25T22:12:42.052Z,44.81
2023-05-25T22:15:09.807Z,44.79
2023-05-25T22:17:37.444Z,44.84
2023-05-25T22:20:07.841Z,44.95
2023-05-25T22:22:37.564Z,45.09
2023-05-25T22:25:05.576Z,45.15
2023-05-25T22:27:33.377Z,45.22
2023-05-25T22:30:01.035Z,45.32
2023-05-25T22:32:28.542Z,45.41
2023-05-25T22:34:56.268Z,45.44
2023-05-25T22:37:23.757Z,45.51
2023-05-25T22:39:51.300Z,45.54
2023-05-25T22:42:18.862Z,45.62
2023-05-25T22:44:46.260Z,45.65
2023-05-25T22:47:13.676Z,45.68
2023-05-25T22:49:43.844Z,45.74
2023-05-25T22:52:12.082Z,45.77
2023-05-25T22:54:39.888Z,45.79
2023-05-25T22:57:09.171Z,45.82
2023-05-25T22:59:36.662Z,45.80
2023-05-25T23:02:04.639Z,45.94
2023-05-25T23:04:32.317Z,45.93
2023-05-25T23:06:59.778Z,45.95
2023-05-25T23:09:27.823Z,45.99
2023-05-25T23:11:55.274Z,46.00
2023-05-25T23:14:22.738Z,46.05
2023-05-25T23:16:50.219Z,46.01
2023-05-25T23:19:18.166Z,46.02
2023-05-25T23:21:46.361Z,45.95
2023-05-25T23:24:13.818Z,46.03
2023-05-25T23:26:41.323Z,46.10
2023-05-25T23:29:08.834Z,46.10
2023-05-25T23:31:36.777Z,46.06
2023-05-25T23:34:04.335Z,45.94
2023-05-25T23:36:33.999Z,46.06
2023-05-25T23:39:02.702Z,45.97
2023-05-25T23:41:30.263Z,46.17
2023-05-25T23:43:58.045Z,46.18
2023-05-25T23:46:25.751Z,46.24
2023-05-25T23:48:53.403Z,46.19
2023-05-25T23:51:20.880Z,46.17
2023-05-25T23:53:48.301Z,46.10
2023-05-25T23:56:15.716Z,46.01
2023-05-25T23:58:43.625Z,45.85
